Language: 


Des rapports , des résumés tant et plus, au choix de chacun....


Données Historiques de Météogheer
Journalier Rapport pour Janvier 5, 2018 Unitée:  Les deux    Impériale   Métrique
Suivant Jour »
Journalier Hebdomadaire Mensuel Annuel Sur mesure
  Max: Min: Moyenne:
Température: 50 °F /  10.0 °C 42.4 °F /  5.8 °C 46.8 °F /  8.2 °C
Point de rosée: 48.2 °F /  9.0 °C 42.8 °F /  6.0 °C 45.3 °F /  7.4 °C
Humidité: 98% 82% 93%
Vent: 22.4mph /  36.0km/h - 8.1mph /  13.1km/h
Rafales: 24.6mph /  39.6km/h - -
Vent- - SW
Pression: 29.6 in /  1000.9 hPa 29.4 in /  994.1 hPa -
Pluie: 0.14 in /  3.6 mm    
Historical Graphs
 
 
Données tabulaires pour Janvier 5, 2018
Heure Température Point de rosée Pression Vent Vent Rafales Humidité Pluie Taux (Horaire) Conditions
00:01 47.3 °F /  8.5 °C 42.8 °F /  6.0 °C 29.4in /  996.8hPa SW 5.6mph /  9.0km/h 11mph /  17.7km/h 83% 0in /  0.0mm
00:06 47.3 °F /  8.5 °C 42.8 °F /  6.0 °C 29.4in /  996.8hPa WSW 11mph /  17.7km/h 11mph /  17.7km/h 83% 0in /  0.0mm
00:08 47.3 °F /  8.5 °C 42.8 °F /  6.0 °C 29.4in /  996.8hPa WSW 5.6mph /  9.0km/h 11mph /  17.7km/h 84% 0in /  0.0mm
00:14 47.5 °F /  8.6 °C 44.6 °F /  7.0 °C 29.4in /  996.8hPa SW 7.4mph /  11.9km/h 11mph /  17.7km/h 85% 0in /  0.0mm
00:19 47.5 °F /  8.6 °C 44.6 °F /  7.0 °C 29.4in /  996.8hPa WSW 8.1mph /  13.0km/h 10.5mph /  16.9km/h 85% 0in /  0.0mm
00:22 47.5 °F /  8.6 °C 44.6 °F /  7.0 °C 29.4in /  996.8hPa SW 8.9mph /  14.3km/h 10.5mph /  16.9km/h 86% 0in /  0.0mm
00:27 47.7 °F /  8.7 °C 44.6 °F /  7.0 °C 29.4in /  996.2hPa WSW 8.7mph /  14.0km/h 11mph /  17.7km/h 87% 0in /  0.0mm
00:30 47.7 °F /  8.7 °C 44.6 °F /  7.0 °C 29.4in /  996.2hPa WSW 6.5mph /  10.5km/h 11mph /  17.7km/h 87% 0in /  0.0mm
00:35 47.7 °F /  8.7 °C 44.6 °F /  7.0 °C 29.4in /  996.2hPa WSW 7.4mph /  11.9km/h 12.8mph /  20.6km/h 88% 0in /  0.0mm
00:37 47.8 °F /  8.8 °C 46.4 °F /  8.0 °C 29.4in /  996.2hPa WSW 6.5mph /  10.5km/h 12.8mph /  20.6km/h 89% 0in /  0.0mm
00:42 47.8 °F /  8.8 °C 46.4 °F /  8.0 °C 29.4in /  996.2hPa SSW 5.6mph /  9.0km/h 10.3mph /  16.6km/h 89% 0in /  0.0mm
00:45 47.8 °F /  8.8 °C 46.4 °F /  8.0 °C 29.4in /  996.2hPa SW 7.6mph /  12.2km/h 10.3mph /  16.6km/h 89% 0in /  0.0mm
00:51 47.8 °F /  8.8 °C 46.4 °F /  8.0 °C 29.4in /  996.2hPa WSW 7.4mph /  11.9km/h 11mph /  17.7km/h 89% 0in /  0.0mm
00:53 47.8 °F /  8.8 °C 46.4 °F /  8.0 °C 29.4in /  996.2hPa SSW 9.6mph /  15.4km/h 11mph /  17.7km/h 89% 0in /  0.0mm
00:58 47.8 °F /  8.8 °C 46.4 °F /  8.0 °C 29.4in /  996.2hPa WSW 6.7mph /  10.8km/h 11mph /  17.7km/h 89% 0in /  0.0mm
01:03 47.8 °F /  8.8 °C 46.4 °F /  8.0 °C 29.4in /  996.2hPa WSW 6.3mph /  10.1km/h 12.5mph /  20.1km/h 89% 0in /  0.0mm
01:08 47.7 °F /  8.7 °C 44.6 °F /  7.0 °C 29.4in /  996.2hPa WSW 10.3mph /  16.6km/h 12.5mph /  20.1km/h 90% 0in /  0.0mm
01:11 47.5 °F /  8.6 °C 44.6 °F /  7.0 °C 29.4in /  996.2hPa SW 6mph /  9.7km/h 12.5mph /  20.1km/h 90% 0in /  0.0mm
01:16 47.3 °F /  8.5 °C 46.4 °F /  8.0 °C 29.4in /  996.2hPa SSW 8.5mph /  13.7km/h 12.3mph /  19.8km/h 91% 0.01in /  0.3mm
01:21 47.1 °F /  8.4 °C 44.6 °F /  7.0 °C 29.4in /  996.2hPa SSW 6.3mph /  10.1km/h 12.3mph /  19.8km/h 92% 0.01in /  0.3mm
01:24 46.9 °F /  8.3 °C 44.6 °F /  7.0 °C 29.4in /  996.2hPa SSW 12.1mph /  19.5km/h 12.3mph /  19.8km/h 92% 0.02in /  0.5mm
01:29 46.8 °F /  8.2 °C 44.6 °F /  7.0 °C 29.4in /  995.1hPa SSW 9.4mph /  15.1km/h 12.3mph /  19.8km/h 93% 0.03in /  0.8mm
01:34 46.6 °F /  8.1 °C 44.6 °F /  7.0 °C 29.4in /  995.1hPa SW 4.3mph /  6.9km/h 12.3mph /  19.8km/h 94% 0.05in /  1.3mm
01:35 46.6 °F /  8.1 °C 44.6 °F /  7.0 °C 29.4in /  995.1hPa WSW 7.2mph /  11.6km/h 12.3mph /  19.8km/h 94% 0.05in /  1.3mm
01:39 46.4 °F /  8.0 °C 44.6 °F /  7.0 °C 29.4in /  995.1hPa SW 8.5mph /  13.7km/h 10.3mph /  16.6km/h 94% 0.06in /  1.5mm
01:44 46.2 °F /  7.9 °C 44.6 °F /  7.0 °C 29.4in /  995.1hPa SSW 6mph /  9.7km/h 8.5mph /  13.7km/h 95% 0.07in /  1.8mm
01:47 46.2 °F /  7.9 °C 46.4 °F /  8.0 °C 29.4in /  995.1hPa SSW 3.8mph /  6.1km/h 8.5mph /  13.7km/h 96% 0.07in /  1.8mm
01:52 46 °F /  7.8 °C 44.6 °F /  7.0 °C 29.4in /  995.1hPa SW 5.4mph /  8.7km/h 7.8mph /  12.6km/h 96% 0.09in /  2.3mm
01:53 46 °F /  7.8 °C 44.6 °F /  7.0 °C 29.4in /  995.1hPa SSW 8.5mph /  13.7km/h 8.5mph /  13.7km/h 96% 0.09in /  2.3mm
01:58 46 °F /  7.8 °C 44.6 °F /  7.0 °C 29.4in /  995.1hPa WSW 5.6mph /  9.0km/h 9.4mph /  15.1km/h 97% 0.09in /  2.3mm
02:04 46 °F /  7.8 °C 44.6 °F /  7.0 °C 29.4in /  995.1hPa SSW 8.5mph /  13.7km/h 10.1mph /  16.3km/h 97% 0.09in /  2.3mm
02:09 46 °F /  7.8 °C 46.4 °F /  8.0 °C 29.4in /  995.1hPa WSW 10.3mph /  16.6km/h 11.2mph /  18.0km/h 98% 0.09in /  2.3mm
02:11 46.2 °F /  7.9 °C 46.4 °F /  8.0 °C 29.4in /  994.1hPa SW 11.9mph /  19.1km/h 12.1mph /  19.5km/h 98% 0.09in /  2.3mm
02:16 46.2 °F /  7.9 °C 46.4 °F /  8.0 °C 29.4in /  994.1hPa SW 8.5mph /  13.7km/h 14.5mph /  23.3km/h 98% 0.07in /  1.8mm
02:22 46.4 °F /  8.0 °C 46.4 °F /  8.0 °C 29.4in /  994.1hPa SW 10.3mph /  16.6km/h 14.5mph /  23.3km/h 98% 0.06in /  1.5mm
02:26 46.6 °F /  8.1 °C 46.4 °F /  8.0 °C 29.4in /  995.1hPa WSW 8.7mph /  14.0km/h 12.8mph /  20.6km/h 98% 0.06in /  1.5mm
02:30 46.6 °F /  8.1 °C 46.4 °F /  8.0 °C 29.4in /  995.1hPa WSW 12.3mph /  19.8km/h 12.8mph /  20.6km/h 98% 0.05in /  1.3mm
02:35 46.9 °F /  8.3 °C 48.2 °F /  9.0 °C 29.4in /  995.1hPa SW 13.2mph /  21.2km/h 13.2mph /  21.2km/h 98% 0.03in /  0.8mm
02:38 47.1 °F /  8.4 °C 48.2 °F /  9.0 °C 29.4in /  995.1hPa SW 12.8mph /  20.6km/h 17mph /  27.4km/h 98% 0.03in /  0.8mm
02:43 47.3 °F /  8.5 °C 48.2 °F /  9.0 °C 29.4in /  995.1hPa WSW 10.7mph /  17.2km/h 17.2mph /  27.7km/h 98% 0.01in /  0.3mm
02:44 47.3 °F /  8.5 °C 48.2 °F /  9.0 °C 29.4in /  995.1hPa SW 12.8mph /  20.6km/h 17.2mph /  27.7km/h 98% 0.01in /  0.3mm
02:47 47.5 °F /  8.6 °C 48.2 °F /  9.0 °C 29.4in /  995.1hPa WSW 16.1mph /  25.9km/h 18.1mph /  29.1km/h 98% 0.01in /  0.3mm
02:51 47.7 °F /  8.7 °C 48.2 °F /  9.0 °C 29.4in /  995.1hPa WSW 13.2mph /  21.2km/h 22.8mph /  36.7km/h 98% 0.01in /  0.3mm
02:52 47.8 °F /  8.8 °C 48.2 °F /  9.0 °C 29.4in /  995.1hPa WSW 19.7mph /  31.7km/h 22.8mph /  36.7km/h 98% 0.01in /  0.3mm
02:58 48 °F /  8.9 °C 48.2 °F /  9.0 °C 29.4in /  994.1hPa West 19.7mph /  31.7km/h 24.6mph /  39.6km/h 98% 0.01in /  0.3mm
03:01 48.2 °F /  9.0 °C 48.2 °F /  9.0 °C 29.4in /  994.1hPa WSW 15.2mph /  24.5km/h 24.6mph /  39.6km/h 98% 0.01in /  0.3mm
03:06 48.4 °F /  9.1 °C 48.2 °F /  9.0 °C 29.4in /  994.1hPa West 22.4mph /  36.0km/h 24.6mph /  39.6km/h 98% 0.01in /  0.3mm
03:11 48.6 °F /  9.2 °C 48.2 °F /  9.0 °C 29.4in /  994.1hPa WSW 12.8mph /  20.6km/h 22.8mph /  36.7km/h 98% 0.01in /  0.3mm
03:16 48.6 °F /  9.2 °C 48.2 °F /  9.0 °C 29.4in /  994.1hPa WSW 16.1mph /  25.9km/h 22.4mph /  36.0km/h 97% 0.01in /  0.3mm
03:21 48.9 °F /  9.4 °C 48.2 °F /  9.0 °C 29.4in /  994.1hPa WSW 18.8mph /  30.2km/h 22.4mph /  36.0km/h 97% 0.01in /  0.3mm
03:26 48.9 °F /  9.4 °C 48.2 °F /  9.0 °C 29.4in /  995.1hPa West 11mph /  17.7km/h 22.4mph /  36.0km/h 96% 0.01in /  0.3mm
03:30 48.9 °F /  9.4 °C 48.2 °F /  9.0 °C 29.4in /  995.1hPa West 13.2mph /  21.2km/h 20.1mph /  32.3km/h 96% 0.01in /  0.3mm
03:35 48.9 °F /  9.4 °C 48.2 °F /  9.0 °C 29.4in /  995.1hPa WSW 10.7mph /  17.2km/h 17.4mph /  28.0km/h 96% 0.01in /  0.3mm
03:39 48.9 °F /  9.4 °C 48.2 °F /  9.0 °C 29.4in /  995.1hPa West 12.5mph /  20.1km/h 17.4mph /  28.0km/h 96% 0.01in /  0.3mm
03:44 49.1 °F /  9.5 °C 48.2 °F /  9.0 °C 29.4in /  995.1hPa WSW 11.9mph /  19.1km/h 15.9mph /  25.6km/h 96% 0.01in /  0.3mm
03:46 49.1 °F /  9.5 °C 48.2 °F /  9.0 °C 29.4in /  995.1hPa WSW 9.8mph /  15.8km/h 15.9mph /  25.6km/h 96% 0.01in /  0.3mm
03:51 49.1 °F /  9.5 °C 48.2 °F /  9.0 °C 29.4in /  995.1hPa WSW 15.4mph /  24.8km/h 17mph /  27.4km/h 96% 0in /  0.0mm
03:53 49.1 °F /  9.5 °C 48.2 °F /  9.0 °C 29.4in /  995.1hPa WSW 15.9mph /  25.6km/h 17mph /  27.4km/h 96% 0in /  0.0mm
03:58 49.1 °F /  9.5 °C 48.2 °F /  9.0 °C 29.4in /  995.1hPa WSW 12.1mph /  19.5km/h 19.2mph /  30.9km/h 95% 0in /  0.0mm
04:02 49.1 °F /  9.5 °C 48.2 °F /  9.0 °C 29.4in /  995.1hPa WSW 13.2mph /  21.2km/h 19.2mph /  30.9km/h 95% 0in /  0.0mm
04:07 49.1 °F /  9.5 °C 48.2 °F /  9.0 °C 29.4in /  995.1hPa West 16.6mph /  26.7km/h 19.9mph /  32.0km/h 94% 0in /  0.0mm
04:11 49.1 °F /  9.5 °C 48.2 °F /  9.0 °C 29.4in /  995.1hPa WSW 11mph /  17.7km/h 19.9mph /  32.0km/h 93% 0in /  0.0mm
04:14 49.1 °F /  9.5 °C 48.2 °F /  9.0 °C 29.4in /  995.1hPa WSW 11mph /  17.7km/h 19.9mph /  32.0km/h 93% 0in /  0.0mm
04:17 49.1 °F /  9.5 °C 48.2 °F /  9.0 °C 29.4in /  995.1hPa WSW 13.2mph /  21.2km/h 20.8mph /  33.5km/h 91% 0in /  0.0mm
04:22 49.1 °F /  9.5 °C 46.4 °F /  8.0 °C 29.4in /  995.1hPa WSW 14.1mph /  22.7km/h 21.5mph /  34.6km/h 89% 0in /  0.0mm
04:24 49.3 °F /  9.6 °C 46.4 °F /  8.0 °C 29.4in /  995.1hPa West 11.4mph /  18.3km/h 22.1mph /  35.6km/h 87% 0in /  0.0mm
04:29 49.3 °F /  9.6 °C 46.4 °F /  8.0 °C 29.4in /  995.1hPa West 17.2mph /  27.7km/h 22.1mph /  35.6km/h 85% 0in /  0.0mm
04:30 49.3 °F /  9.6 °C 46.4 °F /  8.0 °C 29.4in /  995.1hPa West 10.5mph /  16.9km/h 22.1mph /  35.6km/h 85% 0in /  0.0mm
04:35 49.1 °F /  9.5 °C 44.6 °F /  7.0 °C 29.4in /  995.1hPa West 10.3mph /  16.6km/h 21.9mph /  35.2km/h 84% 0in /  0.0mm
04:36 49.1 °F /  9.5 °C 44.6 °F /  7.0 °C 29.4in /  995.1hPa West 16.3mph /  26.2km/h 18.1mph /  29.1km/h 84% 0in /  0.0mm
04:41 48.9 °F /  9.4 °C 44.6 °F /  7.0 °C 29.4in /  995.1hPa WSW 12.8mph /  20.6km/h 18.1mph /  29.1km/h 82% 0in /  0.0mm
04:46 48.9 °F /  9.4 °C 44.6 °F /  7.0 °C 29.4in /  995.1hPa West 15.7mph /  25.3km/h 19.9mph /  32.0km/h 82% 0in /  0.0mm
04:47 48.9 °F /  9.4 °C 44.6 °F /  7.0 °C 29.4in /  995.1hPa West 7.6mph /  12.2km/h 19.9mph /  32.0km/h 82% 0in /  0.0mm
04:52 48.7 °F /  9.3 °C 44.6 °F /  7.0 °C 29.4in /  995.1hPa West 15.2mph /  24.5km/h 19.9mph /  32.0km/h 82% 0in /  0.0mm
04:53 48.7 °F /  9.3 °C 44.6 °F /  7.0 °C 29.4in /  995.1hPa West 8.5mph /  13.7km/h 19.5mph /  31.4km/h 82% 0in /  0.0mm
04:59 48.7 °F /  9.3 °C 44.6 °F /  7.0 °C 29.4in /  995.1hPa WSW 8.1mph /  13.0km/h 17.7mph /  28.5km/h 82% 0in /  0.0mm
05:04 48.6 °F /  9.2 °C 44.6 °F /  7.0 °C 29.4in /  995.1hPa West 12.8mph /  20.6km/h 16.3mph /  26.2km/h 83% 0in /  0.0mm
05:09 48.6 °F /  9.2 °C 44.6 °F /  7.0 °C 29.4in /  995.1hPa West 12.5mph /  20.1km/h 16.3mph /  26.2km/h 83% 0in /  0.0mm
05:10 48.6 °F /  9.2 °C 44.6 °F /  7.0 °C 29.4in /  995.1hPa WSW 6.9mph /  11.1km/h 16.3mph /  26.2km/h 83% 0in /  0.0mm
05:15 48.6 °F /  9.2 °C 44.6 °F /  7.0 °C 29.4in /  995.1hPa West 12.3mph /  19.8km/h 14.8mph /  23.8km/h 84% 0in /  0.0mm
05:20 48.7 °F /  9.3 °C 44.6 °F /  7.0 °C 29.4in /  995.1hPa SW 12.5mph /  20.1km/h 14.8mph /  23.8km/h 84% 0in /  0.0mm
05:23 48.7 °F /  9.3 °C 44.6 °F /  7.0 °C 29.4in /  995.1hPa WNW 7.6mph /  12.2km/h 14.8mph /  23.8km/h 84% 0in /  0.0mm
05:28 48.6 °F /  9.2 °C 44.6 °F /  7.0 °C 29.4in /  994.1hPa West 6.5mph /  10.5km/h 12.8mph /  20.6km/h 85% 0in /  0.0mm
05:33 48.6 °F /  9.2 °C 44.6 °F /  7.0 °C 29.4in /  994.1hPa WSW 8.7mph /  14.0km/h 12.1mph /  19.5km/h 85% 0in /  0.0mm
05:36 48.4 °F /  9.1 °C 44.6 °F /  7.0 °C 29.4in /  994.1hPa WSW 8.7mph /  14.0km/h 10.1mph /  16.3km/h 85% 0in /  0.0mm
05:41 48.4 °F /  9.1 °C 44.6 °F /  7.0 °C 29.4in /  994.1hPa West 10.7mph /  17.2km/h 10.7mph /  17.2km/h 86% 0in /  0.0mm
05:46 48.4 °F /  9.1 °C 44.6 °F /  7.0 °C 29.4in /  994.1hPa West 8.5mph /  13.7km/h 12.3mph /  19.8km/h 86% 0in /  0.0mm
05:47 48.4 °F /  9.1 °C 44.6 °F /  7.0 °C 29.4in /  994.1hPa West 7.6mph /  12.2km/h 12.3mph /  19.8km/h 86% 0in /  0.0mm
05:53 48.4 °F /  9.1 °C 44.6 °F /  7.0 °C 29.4in /  994.1hPa West 5.8mph /  9.3km/h 12.3mph /  19.8km/h 86% 0in /  0.0mm
05:55 48.2 °F /  9.0 °C 44.6 °F /  7.0 °C 29.4in /  994.1hPa WSW 7.8mph /  12.6km/h 10.1mph /  16.3km/h 87% 0in /  0.0mm
06:00 48.2 °F /  9.0 °C 44.6 °F /  7.0 °C 29.4in /  995.1hPa WSW 8.1mph /  13.0km/h 12.3mph /  19.8km/h 87% 0in /  0.0mm
06:02 48 °F /  8.9 °C 44.6 °F /  7.0 °C 29.4in /  995.1hPa WSW 6.3mph /  10.1km/h 12.3mph /  19.8km/h 88% 0in /  0.0mm
06:03 48 °F /  8.9 °C 44.6 °F /  7.0 °C 29.4in /  995.1hPa WSW 6.5mph /  10.5km/h 12.3mph /  19.8km/h 88% 0in /  0.0mm
06:08 48 °F /  8.9 °C 46.4 °F /  8.0 °C 29.4in /  995.1hPa WSW 5.8mph /  9.3km/h 12.3mph /  19.8km/h 89% 0in /  0.0mm
06:14 47.8 °F /  8.8 °C 46.4 °F /  8.0 °C 29.4in /  995.1hPa WSW 6.5mph /  10.5km/h 9.6mph /  15.4km/h 89% 0in /  0.0mm
06:16 47.8 °F /  8.8 °C 46.4 °F /  8.0 °C 29.4in /  995.1hPa WSW 7.4mph /  11.9km/h 9.6mph /  15.4km/h 90% 0in /  0.0mm
06:21 47.8 °F /  8.8 °C 46.4 °F /  8.0 °C 29.4in /  995.1hPa West 6.5mph /  10.5km/h 9.4mph /  15.1km/h 90% 0in /  0.0mm
06:27 47.8 °F /  8.8 °C 46.4 °F /  8.0 °C 29.4in /  995.1hPa WSW 7.6mph /  12.2km/h 8.5mph /  13.7km/h 91% 0in /  0.0mm
06:31 47.8 °F /  8.8 °C 46.4 °F /  8.0 °C 29.4in /  995.1hPa WSW 6.5mph /  10.5km/h 8.5mph /  13.7km/h 91% 0in /  0.0mm
06:36 47.8 °F /  8.8 °C 46.4 °F /  8.0 °C 29.4in /  995.1hPa WSW 6.3mph /  10.1km/h 8.5mph /  13.7km/h 92% 0in /  0.0mm
06:39 47.8 °F /  8.8 °C 46.4 °F /  8.0 °C 29.4in /  995.1hPa WSW 5.4mph /  8.7km/h 8.5mph /  13.7km/h 92% 0in /  0.0mm
06:44 47.7 °F /  8.7 °C 46.4 °F /  8.0 °C 29.4in /  995.1hPa WSW 5.4mph /  8.7km/h 10.3mph /  16.6km/h 92% 0in /  0.0mm
06:49 47.7 °F /  8.7 °C 46.4 °F /  8.0 °C 29.4in /  995.1hPa WSW 10.3mph /  16.6km/h 13mph /  20.9km/h 93% 0in /  0.0mm
06:54 47.7 °F /  8.7 °C 46.4 °F /  8.0 °C 29.4in /  995.1hPa WSW 7.8mph /  12.6km/h 15.2mph /  24.5km/h 94% 0in /  0.0mm
06:59 47.5 °F /  8.6 °C 46.4 °F /  8.0 °C 29.4in /  994.1hPa WSW 8.1mph /  13.0km/h 15.2mph /  24.5km/h 94% 0in /  0.0mm
07:03 47.5 °F /  8.6 °C 46.4 °F /  8.0 °C 29.4in /  994.1hPa WSW 7.6mph /  12.2km/h 11mph /  17.7km/h 94% 0in /  0.0mm
07:08 47.3 °F /  8.5 °C 46.4 °F /  8.0 °C 29.4in /  994.1hPa WSW 7.4mph /  11.9km/h 11mph /  17.7km/h 94% 0in /  0.0mm
07:10 47.3 °F /  8.5 °C 46.4 °F /  8.0 °C 29.4in /  994.1hPa WSW 6.3mph /  10.1km/h 11mph /  17.7km/h 94% 0in /  0.0mm
07:18 46.9 °F /  8.3 °C 46.4 °F /  8.0 °C 29.4in /  995.1hPa WSW 5.8mph /  9.3km/h 8.7mph /  14.0km/h 94% 0in /  0.0mm
07:19 46.9 °F /  8.3 °C 46.4 °F /  8.0 °C 29.4in /  995.1hPa SSW 6mph /  9.7km/h 7.8mph /  12.6km/h 94% 0in /  0.0mm
07:24 46.9 °F /  8.3 °C 46.4 °F /  8.0 °C 29.4in /  995.1hPa SW 4.7mph /  7.6km/h 6.3mph /  10.1km/h 94% 0in /  0.0mm
07:27 46.9 °F /  8.3 °C 46.4 °F /  8.0 °C 29.4in /  995.1hPa SW 5.6mph /  9.0km/h 6.3mph /  10.1km/h 94% 0in /  0.0mm
07:32 46.9 °F /  8.3 °C 46.4 °F /  8.0 °C 29.4in /  995.1hPa Calm   5.8mph /  9.3km/h 94% 0in /  0.0mm
07:35 46.9 °F /  8.3 °C 46.4 °F /  8.0 °C 29.4in /  995.1hPa SW 3.4mph /  5.5km/h 5.6mph /  9.0km/h 94% 0in /  0.0mm
07:40 46.8 °F /  8.2 °C 44.6 °F /  7.0 °C 29.4in /  995.1hPa SW 5.8mph /  9.3km/h 5.8mph /  9.3km/h 94% 0in /  0.0mm
07:46 46.9 °F /  8.3 °C 46.4 °F /  8.0 °C 29.4in /  995.1hPa SW 5.8mph /  9.3km/h 6.5mph /  10.5km/h 95% 0in /  0.0mm
07:51 46.9 °F /  8.3 °C 46.4 °F /  8.0 °C 29.4in /  995.1hPa WSW 4.9mph /  7.9km/h 6.5mph /  10.5km/h 95% 0in /  0.0mm
07:56 46.6 °F /  8.1 °C 46.4 °F /  8.0 °C 29.4in /  995.1hPa SW 4mph /  6.4km/h 6.3mph /  10.1km/h 95% 0in /  0.0mm
07:57 46.6 °F /  8.1 °C 46.4 °F /  8.0 °C 29.4in /  995.1hPa SW 4mph /  6.4km/h 6.3mph /  10.1km/h 95% 0in /  0.0mm
08:02 46.6 °F /  8.1 °C 46.4 °F /  8.0 °C 29.4in /  995.1hPa SSW 4.9mph /  7.9km/h 6.3mph /  10.1km/h 95% 0in /  0.0mm
08:04 46.6 °F /  8.1 °C 46.4 °F /  8.0 °C 29.4in /  995.1hPa Calm   6.3mph /  10.1km/h 95% 0in /  0.0mm
08:09 46.6 °F /  8.1 °C 46.4 °F /  8.0 °C 29.4in /  995.1hPa SSW 5.8mph /  9.3km/h 6.3mph /  10.1km/h 95% 0in /  0.0mm
08:14 46.6 °F /  8.1 °C 46.4 °F /  8.0 °C 29.4in /  995.1hPa SW 5.8mph /  9.3km/h 7.8mph /  12.6km/h 95% 0in /  0.0mm
08:16 46.6 °F /  8.1 °C 46.4 °F /  8.0 °C 29.4in /  995.1hPa SW 3.8mph /  6.1km/h 7.8mph /  12.6km/h 95% 0in /  0.0mm
08:21 46.6 °F /  8.1 °C 46.4 °F /  8.0 °C 29.4in /  995.1hPa SW 4.9mph /  7.9km/h 7.8mph /  12.6km/h 95% 0in /  0.0mm
08:23 46.6 °F /  8.1 °C 46.4 °F /  8.0 °C 29.4in /  995.1hPa WSW 6.3mph /  10.1km/h 7.8mph /  12.6km/h 95% 0in /  0.0mm
08:24 46.6 °F /  8.1 °C 46.4 °F /  8.0 °C 29.4in /  995.1hPa SW 5.4mph /  8.7km/h 6.7mph /  10.8km/h 95% 0in /  0.0mm
08:30 46.6 °F /  8.1 °C 46.4 °F /  8.0 °C 29.4in /  995.1hPa SW 4.5mph /  7.2km/h 8.1mph /  13.0km/h 95% 0in /  0.0mm
08:35 46.8 °F /  8.2 °C 46.4 °F /  8.0 °C 29.4in /  995.1hPa SW 5.4mph /  8.7km/h 8.5mph /  13.7km/h 95% 0in /  0.0mm
08:36 46.8 °F /  8.2 °C 46.4 °F /  8.0 °C 29.4in /  995.1hPa SSW 4.3mph /  6.9km/h 8.5mph /  13.7km/h 95% 0in /  0.0mm
08:37 46.8 °F /  8.2 °C 46.4 °F /  8.0 °C 29.4in /  995.1hPa SW 4.9mph /  7.9km/h 8.5mph /  13.7km/h 95% 0in /  0.0mm
08:42 46.8 °F /  8.2 °C 46.4 °F /  8.0 °C 29.4in /  996.2hPa SW 6mph /  9.7km/h 10.1mph /  16.3km/h 96% 0in /  0.0mm
08:47 46.8 °F /  8.2 °C 46.4 °F /  8.0 °C 29.4in /  996.2hPa WSW 6mph /  9.7km/h 10.5mph /  16.9km/h 96% 0in /  0.0mm
08:49 46.8 °F /  8.2 °C 46.4 °F /  8.0 °C 29.4in /  996.2hPa SW 7.4mph /  11.9km/h 10.5mph /  16.9km/h 96% 0in /  0.0mm
08:54 46.9 °F /  8.3 °C 46.4 °F /  8.0 °C 29.4in /  996.2hPa SSW 6mph /  9.7km/h 10.5mph /  16.9km/h 96% 0in /  0.0mm
08:59 46.9 °F /  8.3 °C 46.4 °F /  8.0 °C 29.4in /  996.2hPa SSW 3.6mph /  5.8km/h 8.1mph /  13.0km/h 96% 0in /  0.0mm
09:05 46.9 °F /  8.3 °C 46.4 °F /  8.0 °C 29.4in /  996.2hPa South 6.3mph /  10.1km/h 7.4mph /  11.9km/h 96% 0in /  0.0mm
09:10 46.9 °F /  8.3 °C 46.4 °F /  8.0 °C 29.4in /  996.2hPa SW 7.4mph /  11.9km/h 7.4mph /  11.9km/h 97% 0in /  0.0mm
09:15 47.1 °F /  8.4 °C 46.4 °F /  8.0 °C 29.4in /  996.2hPa SSW 5.8mph /  9.3km/h 7.6mph /  12.2km/h 97% 0in /  0.0mm
09:17 47.1 °F /  8.4 °C 46.4 °F /  8.0 °C 29.4in /  996.2hPa WSW 6mph /  9.7km/h 7.8mph /  12.6km/h 97% 0in /  0.0mm
09:22 47.1 °F /  8.4 °C 46.4 °F /  8.0 °C 29.4in /  996.2hPa SW 5.6mph /  9.0km/h 10.1mph /  16.3km/h 97% 0in /  0.0mm
09:28 47.1 °F /  8.4 °C 46.4 °F /  8.0 °C 29.4in /  996.2hPa SSW 4.9mph /  7.9km/h 10.1mph /  16.3km/h 97% 0in /  0.0mm
09:34 47.3 °F /  8.5 °C 48.2 °F /  9.0 °C 29.4in /  996.2hPa SW 8.7mph /  14.0km/h 8.7mph /  14.0km/h 97% 0in /  0.0mm
09:39 47.3 °F /  8.5 °C 48.2 °F /  9.0 °C 29.4in /  996.2hPa WSW 8.5mph /  13.7km/h 8.7mph /  14.0km/h 96% 0in /  0.0mm
09:42 47.3 °F /  8.5 °C 48.2 °F /  9.0 °C 29.4in /  996.2hPa SW 4.9mph /  7.9km/h 9.4mph /  15.1km/h 96% 0in /  0.0mm
09:47 47.3 °F /  8.5 °C 48.2 °F /  9.0 °C 29.4in /  996.2hPa SSW 4.9mph /  7.9km/h 9.4mph /  15.1km/h 96% 0in /  0.0mm
09:52 47.3 °F /  8.5 °C 48.2 °F /  9.0 °C 29.4in /  996.2hPa SSW 5.4mph /  8.7km/h 8.5mph /  13.7km/h 96% 0in /  0.0mm
09:54 47.3 °F /  8.5 °C 48.2 °F /  9.0 °C 29.4in /  996.2hPa SSW 5.8mph /  9.3km/h 8.5mph /  13.7km/h 96% 0in /  0.0mm
09:59 47.3 °F /  8.5 °C 48.2 °F /  9.0 °C 29.4in /  996.2hPa South 5.4mph /  8.7km/h 7.2mph /  11.6km/h 96% 0in /  0.0mm
10:02 47.3 °F /  8.5 °C 48.2 °F /  9.0 °C 29.4in /  996.2hPa SSW 4.9mph /  7.9km/h 8.1mph /  13.0km/h 96% 0in /  0.0mm
10:07 47.5 °F /  8.6 °C 48.2 °F /  9.0 °C 29.4in /  996.2hPa SSW 6.3mph /  10.1km/h 8.1mph /  13.0km/h 96% 0in /  0.0mm
10:09 47.5 °F /  8.6 °C 48.2 °F /  9.0 °C 29.4in /  996.2hPa SW 4.5mph /  7.2km/h 8.1mph /  13.0km/h 96% 0in /  0.0mm
10:14 47.5 °F /  8.6 °C 48.2 °F /  9.0 °C 29.4in /  996.2hPa South 3.6mph /  5.8km/h 8.5mph /  13.7km/h 96% 0in /  0.0mm
10:15 47.5 °F /  8.6 °C 48.2 °F /  9.0 °C 29.4in /  996.2hPa SSW 4.3mph /  6.9km/h 8.5mph /  13.7km/h 96% 0in /  0.0mm
10:20 47.7 °F /  8.7 °C 48.2 °F /  9.0 °C 29.4in /  996.2hPa SSW 4mph /  6.4km/h 7.4mph /  11.9km/h 96% 0in /  0.0mm
10:25 47.7 °F /  8.7 °C 48.2 °F /  9.0 °C 29.4in /  996.2hPa SSW 1.1mph /  1.8km/h 6mph /  9.7km/h 96% 0in /  0.0mm
10:26 47.7 °F /  8.7 °C 48.2 °F /  9.0 °C 29.4in /  995.1hPa SSW 3.8mph /  6.1km/h 6mph /  9.7km/h 96% 0in /  0.0mm
10:33 47.8 °F /  8.8 °C 48.2 °F /  9.0 °C 29.4in /  995.1hPa SW 3.4mph /  5.5km/h 8.5mph /  13.7km/h 95% 0in /  0.0mm
10:38 47.8 °F /  8.8 °C 48.2 °F /  9.0 °C 29.4in /  995.1hPa SSW 3.8mph /  6.1km/h 8.5mph /  13.7km/h 95% 0in /  0.0mm
10:39 47.8 °F /  8.8 °C 48.2 °F /  9.0 °C 29.4in /  995.1hPa SSW 4.9mph /  7.9km/h 8.5mph /  13.7km/h 95% 0in /  0.0mm
10:44 47.8 °F /  8.8 °C 48.2 °F /  9.0 °C 29.4in /  996.2hPa SW 2.9mph /  4.7km/h 7.4mph /  11.9km/h 95% 0in /  0.0mm
10:46 48 °F /  8.9 °C 48.2 °F /  9.0 °C 29.4in /  996.2hPa SSW 4.9mph /  7.9km/h 7.4mph /  11.9km/h 95% 0in /  0.0mm
10:51 48 °F /  8.9 °C 48.2 °F /  9.0 °C 29.4in /  996.2hPa SSW 4.7mph /  7.6km/h 6.9mph /  11.1km/h 95% 0in /  0.0mm
10:56 48 °F /  8.9 °C 48.2 °F /  9.0 °C 29.4in /  995.1hPa WSW 6.3mph /  10.1km/h 10.3mph /  16.6km/h 95% 0in /  0.0mm
11:02 48.2 °F /  9.0 °C 46.4 °F /  8.0 °C 29.4in /  995.1hPa SW 8.1mph /  13.0km/h 10.5mph /  16.9km/h 94% 0in /  0.0mm
11:07 48.2 °F /  9.0 °C 46.4 °F /  8.0 °C 29.4in /  995.1hPa SW 6.5mph /  10.5km/h 10.5mph /  16.9km/h 94% 0in /  0.0mm
11:11 48.4 °F /  9.1 °C 46.4 °F /  8.0 °C 29.4in /  995.1hPa SW 7.4mph /  11.9km/h 10.3mph /  16.6km/h 94% 0in /  0.0mm
11:16 48.4 °F /  9.1 °C 46.4 °F /  8.0 °C 29.4in /  996.2hPa SSW 10.7mph /  17.2km/h 10.7mph /  17.2km/h 94% 0in /  0.0mm
11:20 48.6 °F /  9.2 °C 48.2 °F /  9.0 °C 29.4in /  996.2hPa SW 7.2mph /  11.6km/h 10.7mph /  17.2km/h 93% 0in /  0.0mm
11:25 48.6 °F /  9.2 °C 48.2 °F /  9.0 °C 29.4in /  996.2hPa SSW 10.3mph /  16.6km/h 10.7mph /  17.2km/h 93% 0in /  0.0mm
11:29 48.7 °F /  9.3 °C 48.2 °F /  9.0 °C 29.4in /  996.2hPa SSW 5.6mph /  9.0km/h 12.3mph /  19.8km/h 93% 0in /  0.0mm
11:38 48.7 °F /  9.3 °C 46.4 °F /  8.0 °C 29.4in /  996.2hPa SW 5.8mph /  9.3km/h 8.5mph /  13.7km/h 92% 0in /  0.0mm
11:43 48.9 °F /  9.4 °C 46.4 °F /  8.0 °C 29.4in /  996.2hPa SSW 8.5mph /  13.7km/h 9.8mph /  15.8km/h 92% 0in /  0.0mm
11:45 48.9 °F /  9.4 °C 46.4 °F /  8.0 °C 29.4in /  996.2hPa SSW 6.3mph /  10.1km/h 9.8mph /  15.8km/h 92% 0in /  0.0mm
11:50 48.9 °F /  9.4 °C 46.4 °F /  8.0 °C 29.4in /  996.2hPa SSW 10.3mph /  16.6km/h 11mph /  17.7km/h 91% 0in /  0.0mm
11:55 49.1 °F /  9.5 °C 48.2 °F /  9.0 °C 29.4in /  996.2hPa SSW 6mph /  9.7km/h 11mph /  17.7km/h 91% 0in /  0.0mm
12:00 49.3 °F /  9.6 °C 48.2 °F /  9.0 °C 29.4in /  995.1hPa SSW 7.8mph /  12.6km/h 10.7mph /  17.2km/h 91% 0in /  0.0mm
12:04 49.3 °F /  9.6 °C 48.2 °F /  9.0 °C 29.4in /  995.1hPa SW 8.5mph /  13.7km/h 10.7mph /  17.2km/h 91% 0in /  0.0mm
12:09 49.3 °F /  9.6 °C 46.4 °F /  8.0 °C 29.4in /  995.1hPa SW 7.4mph /  11.9km/h 13mph /  20.9km/h 90% 0in /  0.0mm
12:11 49.3 °F /  9.6 °C 46.4 °F /  8.0 °C 29.4in /  995.1hPa SW 8.5mph /  13.7km/h 13mph /  20.9km/h 90% 0in /  0.0mm
12:16 49.5 °F /  9.7 °C 46.4 °F /  8.0 °C 29.4in /  995.1hPa SW 8.7mph /  14.0km/h 13mph /  20.9km/h 90% 0in /  0.0mm
12:17 49.5 °F /  9.7 °C 46.4 °F /  8.0 °C 29.4in /  995.1hPa SW 6mph /  9.7km/h 13mph /  20.9km/h 90% 0in /  0.0mm
12:22 49.6 °F /  9.8 °C 46.4 °F /  8.0 °C 29.4in /  995.1hPa SSW 5.4mph /  8.7km/h 11.9mph /  19.1km/h 89% 0in /  0.0mm
12:27 49.8 °F /  9.9 °C 48.2 °F /  9.0 °C 29.4in /  995.1hPa SSW 6.5mph /  10.5km/h 11.9mph /  19.1km/h 89% 0in /  0.0mm
12:28 49.8 °F /  9.9 °C 48.2 °F /  9.0 °C 29.4in /  995.1hPa SSW 7.4mph /  11.9km/h 11.9mph /  19.1km/h 89% 0in /  0.0mm
12:33 49.8 °F /  9.9 °C 48.2 °F /  9.0 °C 29.4in /  995.1hPa SSW 8.5mph /  13.7km/h 11.4mph /  18.3km/h 89% 0in /  0.0mm
12:38 49.8 °F /  9.9 °C 46.4 °F /  8.0 °C 29.4in /  995.1hPa SSW 8.1mph /  13.0km/h 13.2mph /  21.2km/h 88% 0in /  0.0mm
12:43 49.8 °F /  9.9 °C 46.4 °F /  8.0 °C 29.4in /  995.1hPa SW 7.8mph /  12.6km/h 13.2mph /  21.2km/h 88% 0in /  0.0mm
12:48 49.8 °F /  9.9 °C 46.4 °F /  8.0 °C 29.4in /  995.1hPa SSW 10.5mph /  16.9km/h 12.3mph /  19.8km/h 88% 0in /  0.0mm
12:53 49.8 °F /  9.9 °C 46.4 °F /  8.0 °C 29.4in /  995.1hPa WSW 15.2mph /  24.5km/h 15.2mph /  24.5km/h 87% 0in /  0.0mm
12:58 49.8 °F /  9.9 °C 46.4 °F /  8.0 °C 29.4in /  995.1hPa SSW 5.8mph /  9.3km/h 15.2mph /  24.5km/h 87% 0in /  0.0mm
13:01 49.8 °F /  9.9 °C 46.4 °F /  8.0 °C 29.4in /  995.1hPa SW 12.1mph /  19.5km/h 15.2mph /  24.5km/h 87% 0in /  0.0mm
13:07 49.8 °F /  9.9 °C 46.4 °F /  8.0 °C 29.4in /  995.1hPa SW 11mph /  17.7km/h 13.4mph /  21.6km/h 87% 0in /  0.0mm
13:12 50 °F /  10.0 °C 46.4 °F /  8.0 °C 29.4in /  994.1hPa SSW 7.4mph /  11.9km/h 13.2mph /  21.2km/h 87% 0in /  0.0mm
13:17 50 °F /  10.0 °C 46.4 °F /  8.0 °C 29.4in /  994.1hPa SSW 10.7mph /  17.2km/h 12.8mph /  20.6km/h 86% 0in /  0.0mm
13:22 50 °F /  10.0 °C 46.4 °F /  8.0 °C 29.4in /  994.1hPa WSW 10.5mph /  16.9km/h 12.8mph /  20.6km/h 86% 0in /  0.0mm
13:28 49.8 °F /  9.9 °C 46.4 °F /  8.0 °C 29.4in /  995.1hPa WSW 7.6mph /  12.2km/h 13.2mph /  21.2km/h 86% 0in /  0.0mm
13:33 49.8 °F /  9.9 °C 46.4 °F /  8.0 °C 29.4in /  995.1hPa SW 12.3mph /  19.8km/h 12.3mph /  19.8km/h 87% 0in /  0.0mm
13:38 49.8 °F /  9.9 °C 46.4 °F /  8.0 °C 29.4in /  995.1hPa WSW 10.3mph /  16.6km/h 13mph /  20.9km/h 87% 0in /  0.0mm
13:39 49.8 °F /  9.9 °C 46.4 °F /  8.0 °C 29.4in /  995.1hPa SSW 7.2mph /  11.6km/h 13mph /  20.9km/h 86% 0in /  0.0mm
13:44 50 °F /  10.0 °C 46.4 °F /  8.0 °C 29.4in /  995.1hPa SW 7.8mph /  12.6km/h 14.8mph /  23.8km/h 86% 0in /  0.0mm
13:49 50 °F /  10.0 °C 46.4 °F /  8.0 °C 29.4in /  995.1hPa SW 12.3mph /  19.8km/h 14.8mph /  23.8km/h 85% 0in /  0.0mm
13:54 50 °F /  10.0 °C 46.4 °F /  8.0 °C 29.4in /  995.1hPa SW 10.1mph /  16.3km/h 12.8mph /  20.6km/h 85% 0in /  0.0mm
13:59 50 °F /  10.0 °C 46.4 °F /  8.0 °C 29.4in /  995.1hPa SW 8.7mph /  14.0km/h 12.8mph /  20.6km/h 85% 0in /  0.0mm
14:04 50 °F /  10.0 °C 46.4 °F /  8.0 °C 29.4in /  995.1hPa SW 8.5mph /  13.7km/h 15.9mph /  25.6km/h 84% 0in /  0.0mm
14:09 50 °F /  10.0 °C 46.4 °F /  8.0 °C 29.4in /  995.1hPa WSW 8.1mph /  13.0km/h 15.9mph /  25.6km/h 84% 0in /  0.0mm
14:14 50 °F /  10.0 °C 46.4 °F /  8.0 °C 29.4in /  995.1hPa WSW 8.5mph /  13.7km/h 13.2mph /  21.2km/h 84% 0in /  0.0mm
14:19 49.8 °F /  9.9 °C 46.4 °F /  8.0 °C 29.4in /  995.1hPa WSW 11mph /  17.7km/h 13.6mph /  21.9km/h 84% 0in /  0.0mm
14:23 49.8 °F /  9.9 °C 46.4 °F /  8.0 °C 29.4in /  995.1hPa SSW 12.3mph /  19.8km/h 14.5mph /  23.3km/h 85% 0in /  0.0mm
14:28 49.6 °F /  9.8 °C 46.4 °F /  8.0 °C 29.4in /  995.1hPa SW 13mph /  20.9km/h 15.2mph /  24.5km/h 85% 0in /  0.0mm
14:33 49.3 °F /  9.6 °C 46.4 °F /  8.0 °C 29.4in /  995.1hPa WSW 15.7mph /  25.3km/h 19mph /  30.6km/h 86% 0in /  0.0mm
14:38 49.1 °F /  9.5 °C 46.4 °F /  8.0 °C 29.4in /  995.1hPa WSW 13mph /  20.9km/h 23.7mph /  38.1km/h 86% 0in /  0.0mm
14:42 48.9 °F /  9.4 °C 46.4 °F /  8.0 °C 29.4in /  995.1hPa SW 13.2mph /  21.2km/h 23.7mph /  38.1km/h 87% 0in /  0.0mm
14:47 48.7 °F /  9.3 °C 46.4 °F /  8.0 °C 29.4in /  995.1hPa WSW 10.1mph /  16.3km/h 19.9mph /  32.0km/h 88% 0in /  0.0mm
14:50 48.6 °F /  9.2 °C 46.4 °F /  8.0 °C 29.4in /  995.1hPa WSW 9.8mph /  15.8km/h 17.4mph /  28.0km/h 88% 0in /  0.0mm
14:55 48.6 °F /  9.2 °C 46.4 °F /  8.0 °C 29.4in /  995.1hPa WSW 10.7mph /  17.2km/h 14.1mph /  22.7km/h 89% 0in /  0.0mm
14:57 48.6 °F /  9.2 °C 46.4 °F /  8.0 °C 29.4in /  995.1hPa SW 8.7mph /  14.0km/h 14.1mph /  22.7km/h 89% 0in /  0.0mm
15:02 48.6 °F /  9.2 °C 46.4 °F /  8.0 °C 29.4in /  995.1hPa SW 9.8mph /  15.8km/h 13.2mph /  21.2km/h 90% 0in /  0.0mm
15:07 48.4 °F /  9.1 °C 46.4 °F /  8.0 °C 29.4in /  995.1hPa WSW 9.6mph /  15.4km/h 13.2mph /  21.2km/h 90% 0in /  0.0mm
15:12 48.4 °F /  9.1 °C 46.4 °F /  8.0 °C 29.4in /  995.1hPa SSW 7.6mph /  12.2km/h 15.2mph /  24.5km/h 90% 0in /  0.0mm
15:15 48.4 °F /  9.1 °C 46.4 °F /  8.0 °C 29.4in /  995.1hPa WSW 7.6mph /  12.2km/h 15.2mph /  24.5km/h 91% 0in /  0.0mm
15:21 48.2 °F /  9.0 °C 46.4 °F /  8.0 °C 29.4in /  995.1hPa SW 7.6mph /  12.2km/h 14.8mph /  23.8km/h 91% 0in /  0.0mm
15:24 48.2 °F /  9.0 °C 46.4 °F /  8.0 °C 29.4in /  995.1hPa SW 9.6mph /  15.4km/h 11mph /  17.7km/h 91% 0in /  0.0mm
15:29 48.2 °F /  9.0 °C 46.4 °F /  8.0 °C 29.4in /  995.1hPa WSW 8.5mph /  13.7km/h 15.2mph /  24.5km/h 91% 0in /  0.0mm
15:34 48.2 °F /  9.0 °C 46.4 °F /  8.0 °C 29.4in /  995.1hPa WSW 10.7mph /  17.2km/h 15.2mph /  24.5km/h 91% 0in /  0.0mm
15:39 48.2 °F /  9.0 °C 46.4 °F /  8.0 °C 29.4in /  995.1hPa SW 8.1mph /  13.0km/h 16.6mph /  26.7km/h 91% 0in /  0.0mm
15:44 48 °F /  8.9 °C 46.4 °F /  8.0 °C 29.4in /  995.1hPa WSW 7.6mph /  12.2km/h 16.6mph /  26.7km/h 91% 0in /  0.0mm
15:50 48 °F /  8.9 °C 46.4 °F /  8.0 °C 29.4in /  995.1hPa WSW 7.2mph /  11.6km/h 14.8mph /  23.8km/h 91% 0in /  0.0mm
15:54 48 °F /  8.9 °C 46.4 °F /  8.0 °C 29.4in /  995.1hPa SW 7.6mph /  12.2km/h 14.8mph /  23.8km/h 90% 0in /  0.0mm
15:59 48 °F /  8.9 °C 46.4 °F /  8.0 °C 29.4in /  995.1hPa WSW 8.1mph /  13.0km/h 13.2mph /  21.2km/h 90% 0in /  0.0mm
16:05 48 °F /  8.9 °C 46.4 °F /  8.0 °C 29.4in /  995.1hPa SSW 10.5mph /  16.9km/h 10.5mph /  16.9km/h 90% 0in /  0.0mm
16:10 48 °F /  8.9 °C 46.4 °F /  8.0 °C 29.4in /  995.1hPa WSW 7.8mph /  12.6km/h 12.5mph /  20.1km/h 90% 0in /  0.0mm
16:15 47.7 °F /  8.7 °C 44.6 °F /  7.0 °C 29.4in /  995.1hPa SW 8.1mph /  13.0km/h 12.5mph /  20.1km/h 89% 0in /  0.0mm
16:20 47.3 °F /  8.5 °C 44.6 °F /  7.0 °C 29.4in /  995.1hPa WSW 7.6mph /  12.2km/h 10.5mph /  16.9km/h 89% 0in /  0.0mm
16:25 47.1 °F /  8.4 °C 44.6 °F /  7.0 °C 29.4in /  995.1hPa WSW 7.8mph /  12.6km/h 10.7mph /  17.2km/h 89% 0in /  0.0mm
16:30 46.9 °F /  8.3 °C 44.6 °F /  7.0 °C 29.4in /  996.2hPa SW 7.6mph /  12.2km/h 10.7mph /  17.2km/h 89% 0in /  0.0mm
16:32 46.8 °F /  8.2 °C 44.6 °F /  7.0 °C 29.4in /  996.2hPa SW 8.7mph /  14.0km/h 10.7mph /  17.2km/h 89% 0in /  0.0mm
16:43 46.4 °F /  8.0 °C 44.6 °F /  7.0 °C 29.4in /  996.2hPa SW 5.4mph /  8.7km/h 12.8mph /  20.6km/h 90% 0in /  0.0mm
16:48 46.2 °F /  7.9 °C 44.6 °F /  7.0 °C 29.4in /  996.2hPa WSW 5.8mph /  9.3km/h 12.8mph /  20.6km/h 91% 0in /  0.0mm
16:51 46.2 °F /  7.9 °C 44.6 °F /  7.0 °C 29.4in /  996.2hPa WSW 8.5mph /  13.7km/h 9.2mph /  14.8km/h 91% 0in /  0.0mm
16:53 46 °F /  7.8 °C 42.8 °F /  6.0 °C 29.4in /  996.2hPa WSW 7.6mph /  12.2km/h 9.2mph /  14.8km/h 91% 0in /  0.0mm
16:58 46 °F /  7.8 °C 42.8 °F /  6.0 °C 29.4in /  996.8hPa WSW 7.6mph /  12.2km/h 9.6mph /  15.4km/h 92% 0in /  0.0mm
17:03 46.2 °F /  7.9 °C 44.6 °F /  7.0 °C 29.4in /  996.8hPa WSW 8.1mph /  13.0km/h 10.5mph /  16.9km/h 93% 0in /  0.0mm
17:08 46 °F /  7.8 °C 44.6 °F /  7.0 °C 29.4in /  996.8hPa WSW 7.2mph /  11.6km/h 10.5mph /  16.9km/h 93% 0in /  0.0mm
17:10 46 °F /  7.8 °C 44.6 °F /  7.0 °C 29.4in /  996.8hPa WSW 7.4mph /  11.9km/h 10.1mph /  16.3km/h 93% 0in /  0.0mm
17:14 46 °F /  7.8 °C 44.6 °F /  7.0 °C 29.4in /  996.8hPa SW 6.3mph /  10.1km/h 10.1mph /  16.3km/h 93% 0in /  0.0mm
17:19 46 °F /  7.8 °C 44.6 °F /  7.0 °C 29.4in /  996.8hPa WSW 7.4mph /  11.9km/h 10.5mph /  16.9km/h 93% 0in /  0.0mm
17:24 46.2 °F /  7.9 °C 44.6 °F /  7.0 °C 29.4in /  996.8hPa WSW 7.8mph /  12.6km/h 10.5mph /  16.9km/h 93% 0in /  0.0mm
17:29 46.2 °F /  7.9 °C 44.6 °F /  7.0 °C 29.4in /  996.8hPa West 7.2mph /  11.6km/h 10.3mph /  16.6km/h 93% 0.01in /  0.3mm
17:30 46.2 °F /  7.9 °C 44.6 °F /  7.0 °C 29.4in /  996.8hPa West 6.5mph /  10.5km/h 9.2mph /  14.8km/h 93% 0.01in /  0.3mm
17:35 45.7 °F /  7.6 °C 44.6 °F /  7.0 °C 29.4in /  996.8hPa WSW 10.5mph /  16.9km/h 14.8mph /  23.8km/h 93% 0.02in /  0.5mm
17:38 45.3 °F /  7.4 °C 42.8 °F /  6.0 °C 29.4in /  996.8hPa WSW 10.3mph /  16.6km/h 14.8mph /  23.8km/h 92% 0.02in /  0.5mm
17:43 45 °F /  7.2 °C 42.8 °F /  6.0 °C 29.4in /  996.8hPa WSW 13mph /  20.9km/h 15.9mph /  25.6km/h 92% 0.03in /  0.8mm
17:44 45 °F /  7.2 °C 42.8 °F /  6.0 °C 29.4in /  996.8hPa WSW 11mph /  17.7km/h 15.9mph /  25.6km/h 92% 0.03in /  0.8mm
17:49 44.6 °F /  7.0 °C 42.8 °F /  6.0 °C 29.4in /  996.8hPa WSW 11.2mph /  18.0km/h 16.6mph /  26.7km/h 93% 0.03in /  0.8mm
17:51 44.6 °F /  7.0 °C 42.8 °F /  6.0 °C 29.4in /  996.8hPa West 12.3mph /  19.8km/h 16.6mph /  26.7km/h 93% 0.03in /  0.8mm
17:56 44.2 °F /  6.8 °C 42.8 °F /  6.0 °C 29.4in /  996.8hPa WSW 12.8mph /  20.6km/h 19.7mph /  31.7km/h 95% 0.03in /  0.8mm
17:59 44.2 °F /  6.8 °C 42.8 °F /  6.0 °C 29.4in /  996.8hPa WSW 10.1mph /  16.3km/h 19.7mph /  31.7km/h 95% 0.03in /  0.8mm
18:04 43.9 °F /  6.6 °C 42.8 °F /  6.0 °C 29.4in /  996.8hPa WSW 7.4mph /  11.9km/h 17mph /  27.4km/h 95% 0.03in /  0.8mm
18:06 43.9 °F /  6.6 °C 42.8 °F /  6.0 °C 29.4in /  996.8hPa WSW 7.4mph /  11.9km/h 14.5mph /  23.3km/h 95% 0.03in /  0.8mm
18:11 43.5 °F /  6.4 °C 42.8 °F /  6.0 °C 29.4in /  996.8hPa WSW 10.1mph /  16.3km/h 12.5mph /  20.1km/h 95% 0.03in /  0.8mm
18:14 43.5 °F /  6.4 °C 42.8 °F /  6.0 °C 29.4in /  996.8hPa WSW 7.8mph /  12.6km/h 12.5mph /  20.1km/h 95% 0.03in /  0.8mm
18:20 43.5 °F /  6.4 °C 42.8 °F /  6.0 °C 29.4in /  996.8hPa WSW 7.6mph /  12.2km/h 11.2mph /  18.0km/h 95% 0.03in /  0.8mm
18:25 43.3 °F /  6.3 °C 42.8 °F /  6.0 °C 29.4in /  996.8hPa SW 8.1mph /  13.0km/h 12.1mph /  19.5km/h 95% 0.03in /  0.8mm
18:30 43.2 °F /  6.2 °C 42.8 °F /  6.0 °C 29.4in /  996.8hPa WSW 5.6mph /  9.0km/h 12.1mph /  19.5km/h 95% 0.02in /  0.5mm
18:35 43.2 °F /  6.2 °C 42.8 °F /  6.0 °C 29.4in /  996.8hPa WSW 11mph /  17.7km/h 11mph /  17.7km/h 95% 0.01in /  0.3mm
18:40 43.3 °F /  6.3 °C 42.8 °F /  6.0 °C 29.4in /  996.8hPa WSW 10.7mph /  17.2km/h 13.6mph /  21.9km/h 96% 0in /  0.0mm
18:44 43.3 °F /  6.3 °C 42.8 °F /  6.0 °C 29.4in /  996.8hPa WSW 10.7mph /  17.2km/h 13.6mph /  21.9km/h 96% 0in /  0.0mm
18:49 43.5 °F /  6.4 °C 42.8 °F /  6.0 °C 29.4in /  996.8hPa WSW 9.8mph /  15.8km/h 13.6mph /  21.9km/h 96% 0in /  0.0mm
18:50 43.5 °F /  6.4 °C 42.8 °F /  6.0 °C 29.4in /  996.8hPa SSW 7.8mph /  12.6km/h 13mph /  20.9km/h 96% 0in /  0.0mm
18:55 43.5 °F /  6.4 °C 42.8 °F /  6.0 °C 29.4in /  996.8hPa WSW 13mph /  20.9km/h 13mph /  20.9km/h 96% 0in /  0.0mm
18:57 43.5 °F /  6.4 °C 42.8 °F /  6.0 °C 29.5in /  997.9hPa WSW 10.1mph /  16.3km/h 13mph /  20.9km/h 96% 0in /  0.0mm
19:02 43.5 °F /  6.4 °C 42.8 °F /  6.0 °C 29.5in /  997.9hPa WSW 10.3mph /  16.6km/h 13mph /  20.9km/h 96% 0in /  0.0mm
19:07 43.5 °F /  6.4 °C 42.8 °F /  6.0 °C 29.5in /  997.9hPa SW 6.5mph /  10.5km/h 12.1mph /  19.5km/h 95% 0in /  0.0mm
19:12 43.5 °F /  6.4 °C 42.8 °F /  6.0 °C 29.5in /  997.9hPa SW 7.8mph /  12.6km/h 10.7mph /  17.2km/h 95% 0in /  0.0mm
19:17 43.3 °F /  6.3 °C 42.8 °F /  6.0 °C 29.5in /  997.9hPa SSW 7.6mph /  12.2km/h 10.7mph /  17.2km/h 95% 0in /  0.0mm
19:22 43.3 °F /  6.3 °C 42.8 °F /  6.0 °C 29.5in /  997.9hPa SW 7.6mph /  12.2km/h 9.4mph /  15.1km/h 95% 0in /  0.0mm
19:27 43.3 °F /  6.3 °C 42.8 °F /  6.0 °C 29.5in /  997.9hPa SW 7.8mph /  12.6km/h 11.4mph /  18.3km/h 95% 0in /  0.0mm
19:32 43.3 °F /  6.3 °C 42.8 °F /  6.0 °C 29.5in /  997.9hPa WSW 8.5mph /  13.7km/h 12.3mph /  19.8km/h 94% 0in /  0.0mm
19:37 43.3 °F /  6.3 °C 42.8 °F /  6.0 °C 29.5in /  997.9hPa SW 8.1mph /  13.0km/h 12.3mph /  19.8km/h 94% 0in /  0.0mm
19:42 43.5 °F /  6.4 °C 42.8 °F /  6.0 °C 29.5in /  997.9hPa WSW 10.1mph /  16.3km/h 13.2mph /  21.2km/h 94% 0in /  0.0mm
19:43 43.5 °F /  6.4 °C 42.8 °F /  6.0 °C 29.5in /  997.9hPa SW 10.1mph /  16.3km/h 13.2mph /  21.2km/h 94% 0in /  0.0mm
19:48 43.5 °F /  6.4 °C 42.8 °F /  6.0 °C 29.5in /  997.9hPa SW 12.5mph /  20.1km/h 13.2mph /  21.2km/h 94% 0in /  0.0mm
19:58 43.5 °F /  6.4 °C 42.8 °F /  6.0 °C 29.5in /  997.9hPa WSW 7.6mph /  12.2km/h 12.8mph /  20.6km/h 94% 0in /  0.0mm
20:03 43.7 °F /  6.5 °C 42.8 °F /  6.0 °C 29.5in /  997.9hPa SW 6.5mph /  10.5km/h 12.8mph /  20.6km/h 94% 0.01in /  0.3mm
20:04 43.7 °F /  6.5 °C 42.8 °F /  6.0 °C 29.5in /  997.9hPa SW 7.6mph /  12.2km/h 12.8mph /  20.6km/h 94% 0.01in /  0.3mm
20:09 43.7 °F /  6.5 °C 42.8 °F /  6.0 °C 29.5in /  997.9hPa SW 10.5mph /  16.9km/h 13.2mph /  21.2km/h 94% 0.01in /  0.3mm
20:11 43.7 °F /  6.5 °C 42.8 °F /  6.0 °C 29.5in /  997.9hPa SW 10.3mph /  16.6km/h 13.2mph /  21.2km/h 94% 0.01in /  0.3mm
20:16 43.7 °F /  6.5 °C 42.8 °F /  6.0 °C 29.5in /  997.9hPa SSW 7.8mph /  12.6km/h 13.2mph /  21.2km/h 94% 0.01in /  0.3mm
20:20 43.7 °F /  6.5 °C 42.8 °F /  6.0 °C 29.5in /  997.9hPa WSW 7.8mph /  12.6km/h 13mph /  20.9km/h 94% 0.01in /  0.3mm
20:26 43.7 °F /  6.5 °C 42.8 °F /  6.0 °C 29.5in /  998.9hPa SW 11mph /  17.7km/h 11mph /  17.7km/h 94% 0.01in /  0.3mm
20:27 43.7 °F /  6.5 °C 42.8 °F /  6.0 °C 29.5in /  998.9hPa SW 8.1mph /  13.0km/h 11mph /  17.7km/h 94% 0.01in /  0.3mm
20:32 43.5 °F /  6.4 °C 42.8 °F /  6.0 °C 29.5in /  998.9hPa SW 6mph /  9.7km/h 11mph /  17.7km/h 94% 0.01in /  0.3mm
20:34 43.5 °F /  6.4 °C 42.8 °F /  6.0 °C 29.5in /  998.9hPa SW 5.8mph /  9.3km/h 11mph /  17.7km/h 94% 0.01in /  0.3mm
20:36 43.7 °F /  6.5 °C 42.8 °F /  6.0 °C 29.5in /  998.9hPa SSW 7.2mph /  11.6km/h 10.3mph /  16.6km/h 95% 0.01in /  0.3mm
20:41 43.7 °F /  6.5 °C 42.8 °F /  6.0 °C 29.5in /  998.9hPa SSW 7.6mph /  12.2km/h 10.5mph /  16.9km/h 95% 0.01in /  0.3mm
20:42 43.7 °F /  6.5 °C 42.8 °F /  6.0 °C 29.5in /  998.9hPa SW 9.8mph /  15.8km/h 10.5mph /  16.9km/h 95% 0.01in /  0.3mm
20:47 43.7 °F /  6.5 °C 42.8 °F /  6.0 °C 29.5in /  998.9hPa SSW 7.8mph /  12.6km/h 10.5mph /  16.9km/h 95% 0.01in /  0.3mm
20:52 43.7 °F /  6.5 °C 42.8 °F /  6.0 °C 29.5in /  998.9hPa WSW 7.8mph /  12.6km/h 8.9mph /  14.3km/h 95% 0.01in /  0.3mm
21:02 43.7 °F /  6.5 °C 42.8 °F /  6.0 °C 29.5in /  999.9hPa SW 9.2mph /  14.8km/h 10.5mph /  16.9km/h 96% 0in /  0.0mm
21:07 43.7 °F /  6.5 °C 42.8 °F /  6.0 °C 29.5in /  999.9hPa SSW 7.8mph /  12.6km/h 12.1mph /  19.5km/h 96% 0in /  0.0mm
21:11 43.7 °F /  6.5 °C 42.8 °F /  6.0 °C 29.5in /  999.9hPa WSW 7.4mph /  11.9km/h 12.1mph /  19.5km/h 96% 0in /  0.0mm
21:16 43.7 °F /  6.5 °C 42.8 °F /  6.0 °C 29.5in /  997.9hPa SSW 6.5mph /  10.5km/h 12.1mph /  19.5km/h 96% 0in /  0.0mm
21:21 43.7 °F /  6.5 °C 42.8 °F /  6.0 °C 29.5in /  997.9hPa SW 6mph /  9.7km/h 10.5mph /  16.9km/h 96% 0in /  0.0mm
21:25 43.5 °F /  6.4 °C 42.8 °F /  6.0 °C 29.5in /  997.9hPa SW 6mph /  9.7km/h 10.3mph /  16.6km/h 96% 0in /  0.0mm
21:30 43.5 °F /  6.4 °C 42.8 °F /  6.0 °C 29.5in /  998.9hPa SSW 7.8mph /  12.6km/h 10.1mph /  16.3km/h 96% 0in /  0.0mm
21:35 43.3 °F /  6.3 °C 42.8 °F /  6.0 °C 29.5in /  998.9hPa SSW 6.3mph /  10.1km/h 9.6mph /  15.4km/h 96% 0in /  0.0mm
21:40 43.2 °F /  6.2 °C 42.8 °F /  6.0 °C 29.5in /  998.9hPa SW 6mph /  9.7km/h 8.1mph /  13.0km/h 96% 0in /  0.0mm
21:43 43 °F /  6.1 °C 42.8 °F /  6.0 °C 29.5in /  998.9hPa Calm   8.1mph /  13.0km/h 96% 0in /  0.0mm
21:48 43 °F /  6.1 °C 42.8 °F /  6.0 °C 29.5in /  998.9hPa SW 4.9mph /  7.9km/h 8.1mph /  13.0km/h 96% 0in /  0.0mm
21:51 43 °F /  6.1 °C 42.8 °F /  6.0 °C 29.5in /  998.9hPa SSW 4.7mph /  7.6km/h 8.5mph /  13.7km/h 96% 0in /  0.0mm
21:58 43 °F /  6.1 °C 42.8 °F /  6.0 °C 29.5in /  998.9hPa SSW 5.4mph /  8.7km/h 8.7mph /  14.0km/h 97% 0in /  0.0mm
22:03 43 °F /  6.1 °C 42.8 °F /  6.0 °C 29.5in /  998.9hPa SW 6.3mph /  10.1km/h 8.7mph /  14.0km/h 97% 0in /  0.0mm
22:08 43.3 °F /  6.3 °C 42.8 °F /  6.0 °C 29.5in /  998.9hPa SW 7.4mph /  11.9km/h 10.5mph /  16.9km/h 97% 0in /  0.0mm
22:12 43.3 °F /  6.3 °C 42.8 °F /  6.0 °C 29.5in /  999.9hPa WSW 5.4mph /  8.7km/h 10.5mph /  16.9km/h 97% 0in /  0.0mm
22:13 43.3 °F /  6.3 °C 42.8 °F /  6.0 °C 29.5in /  999.9hPa SW 5.8mph /  9.3km/h 10.5mph /  16.9km/h 97% 0in /  0.0mm
22:18 43.3 °F /  6.3 °C 42.8 °F /  6.0 °C 29.5in /  999.9hPa SW 5.8mph /  9.3km/h 8.5mph /  13.7km/h 97% 0in /  0.0mm
22:21 43.5 °F /  6.4 °C 42.8 °F /  6.0 °C 29.5in /  999.9hPa SW 7.6mph /  12.2km/h 8.5mph /  13.7km/h 97% 0in /  0.0mm
22:26 43.5 °F /  6.4 °C 42.8 °F /  6.0 °C 29.5in /  999.9hPa SSW 7.8mph /  12.6km/h 7.8mph /  12.6km/h 97% 0in /  0.0mm
22:30 43.5 °F /  6.4 °C 42.8 °F /  6.0 °C 29.5in /  999.9hPa WSW 5.6mph /  9.0km/h 11.2mph /  18.0km/h 97% 0in /  0.0mm
22:35 43.5 °F /  6.4 °C 42.8 °F /  6.0 °C 29.5in /  999.9hPa SSW 7.4mph /  11.9km/h 11.2mph /  18.0km/h 97% 0in /  0.0mm
22:36 43.5 °F /  6.4 °C 42.8 °F /  6.0 °C 29.5in /  999.9hPa SSW 6mph /  9.7km/h 11.2mph /  18.0km/h 97% 0in /  0.0mm
22:41 43.5 °F /  6.4 °C 42.8 °F /  6.0 °C 29.6in /  1000.9hPa SW 6mph /  9.7km/h 9.6mph /  15.4km/h 97% 0in /  0.0mm
22:46 43.5 °F /  6.4 °C 42.8 °F /  6.0 °C 29.6in /  1000.9hPa WSW 6.3mph /  10.1km/h 8.7mph /  14.0km/h 97% 0in /  0.0mm
22:49 43.5 °F /  6.4 °C 42.8 °F /  6.0 °C 29.6in /  1000.9hPa SW 4mph /  6.4km/h 8.7mph /  14.0km/h 97% 0in /  0.0mm
22:54 43.5 °F /  6.4 °C 42.8 °F /  6.0 °C 29.6in /  1000.9hPa SW 6mph /  9.7km/h 7.8mph /  12.6km/h 96% 0in /  0.0mm
22:56 43.5 °F /  6.4 °C 42.8 °F /  6.0 °C 29.5in /  999.9hPa SW 6.5mph /  10.5km/h 7.8mph /  12.6km/h 96% 0in /  0.0mm
23:01 43.5 °F /  6.4 °C 42.8 °F /  6.0 °C 29.5in /  999.9hPa SW 5.4mph /  8.7km/h 7.8mph /  12.6km/h 96% 0in /  0.0mm
23:06 43.5 °F /  6.4 °C 42.8 °F /  6.0 °C 29.5in /  999.9hPa SW 5.6mph /  9.0km/h 8.5mph /  13.7km/h 96% 0in /  0.0mm
23:09 43.5 °F /  6.4 °C 42.8 °F /  6.0 °C 29.5in /  999.9hPa WSW 5.4mph /  8.7km/h 8.5mph /  13.7km/h 96% 0in /  0.0mm
23:14 43.5 °F /  6.4 °C 42.8 °F /  6.0 °C 29.6in /  1000.9hPa SSW 7.8mph /  12.6km/h 8.7mph /  14.0km/h 96% 0in /  0.0mm
23:17 43.5 °F /  6.4 °C 42.8 °F /  6.0 °C 29.6in /  1000.9hPa SW 6.5mph /  10.5km/h 8.7mph /  14.0km/h 96% 0in /  0.0mm
23:22 43.3 °F /  6.3 °C 42.8 °F /  6.0 °C 29.6in /  1000.9hPa SSW 6.5mph /  10.5km/h 8.7mph /  14.0km/h 96% 0in /  0.0mm
23:23 43.3 °F /  6.3 °C 42.8 °F /  6.0 °C 29.6in /  1000.9hPa WSW 5.8mph /  9.3km/h 8.7mph /  14.0km/h 96% 0in /  0.0mm
23:28 43.3 °F /  6.3 °C 42.8 °F /  6.0 °C 29.6in /  1000.9hPa West 3.8mph /  6.1km/h 9.6mph /  15.4km/h 95% 0in /  0.0mm
23:33 43.2 °F /  6.2 °C 42.8 °F /  6.0 °C 29.6in /  1000.9hPa SSW 4mph /  6.4km/h 9.6mph /  15.4km/h 95% 0in /  0.0mm
23:34 43 °F /  6.1 °C 42.8 °F /  6.0 °C 29.6in /  1000.9hPa SSW 3.6mph /  5.8km/h 9.6mph /  15.4km/h 95% 0in /  0.0mm
23:35 43 °F /  6.1 °C 42.8 °F /  6.0 °C 29.6in /  1000.9hPa South 4.3mph /  6.9km/h 6.3mph /  10.1km/h 95% 0in /  0.0mm
23:40 42.8 °F /  6.0 °C 42.8 °F /  6.0 °C 29.6in /  1000.9hPa WSW 5.8mph /  9.3km/h 8.5mph /  13.7km/h 95% 0in /  0.0mm
23:46 42.6 °F /  5.9 °C 42.8 °F /  6.0 °C 29.6in /  1000.9hPa Calm   8.5mph /  13.7km/h 95% 0in /  0.0mm
23:48 42.6 °F /  5.9 °C 42.8 °F /  6.0 °C 29.6in /  1000.9hPa SSW 6mph /  9.7km/h 8.5mph /  13.7km/h 95% 0in /  0.0mm
23:53 42.4 °F /  5.8 °C 42.8 °F /  6.0 °C 29.6in /  1000.9hPa South 4.9mph /  7.9km/h 6.3mph /  10.1km/h 95% 0in /  0.0mm
Données Historique de Météo Turbie

Mise a jour : 22/05/2018 19:56:12
Généré par Cumulus 1.9.4 (1099)